Time;durP1;ratioP1;P1;durP2;ratioP2;P2;SDS_P1;SDS_P2;PMS_P1;PMS_P2;Temp;Humidity;BMP_temperature;BMP_pressure;BME280_temperature;BME280_humidity;BME280_pressure;Samples;Min_cycle;Max_cycle;Signal;HPM_P1;HPM_P2
2022/05/17 00:01:11;;;;;;;4.13;2.80;;;;;;;;;;5048202;28;20797;-81
2022/05/17 00:03:37;;;;;;;3.30;2.80;;;;;;;;;;5035242;28;20432;-81
2022/05/17 00:06:05;;;;;;;4.68;2.70;;;;;;;;;;5035196;28;20379;-81
2022/05/17 00:08:31;;;;;;;4.60;2.70;;;;;;;;;;5035432;28;20391;-81
2022/05/17 00:10:57;;;;;;;5.68;3.10;;;;;;;;;;5035407;28;20421;-81
2022/05/17 00:13:23;;;;;;;5.05;3.03;;;;;;;;;;5034656;28;20418;-81
2022/05/17 00:15:51;;;;;;;4.25;2.80;;;;;;;;;;5034984;28;20378;-81
2022/05/17 00:18:19;;;;;;;4.13;2.88;;;;;;;;;;5034482;28;20872;-81
2022/05/17 00:20:46;;;;;;;4.78;2.80;;;;;;;;;;5035076;28;20385;-81
2022/05/17 00:23:15;;;;;;;3.78;2.88;;;;;;;;;;5035434;28;20394;-81
2022/05/17 00:25:41;;;;;;;3.33;2.70;;;;;;;;;;5034807;28;20383;-81
2022/05/17 00:28:07;;;;;;;4.10;2.60;;;;;;;;;;5035080;28;20474;-81
2022/05/17 00:30:33;;;;;;;4.65;2.72;;;;;;;;;;5035029;28;20803;-81
2022/05/17 00:32:59;;;;;;;5.30;3.03;;;;;;;;;;5034370;28;20383;-81
2022/05/17 00:35:25;;;;;;;3.75;2.55;;;;;;;;;;5034548;28;20375;-81
2022/05/17 00:37:51;;;;;;;3.50;2.65;;;;;;;;;;5034164;28;20445;-81
2022/05/17 00:40:17;;;;;;;6.03;3.05;;;;;;;;;;5034937;28;20383;-81
2022/05/17 00:42:43;;;;;;;4.03;2.80;;;;;;;;;;5034836;28;20382;-81
2022/05/17 00:45:10;;;;;;;4.18;2.75;;;;;;;;;;5054181;28;20412;-81
2022/05/17 00:47:40;;;;;;;3.08;2.65;;;;;;;;;;5054503;28;20382;-81
2022/05/17 00:50:22;;;;;;;3.58;2.78;;;;;;;;;;5053907;28;20498;-81
2022/05/17 00:52:51;;;;;;;3.42;2.65;;;;;;;;;;5054212;28;20859;-81
2022/05/17 00:55:23;;;;;;;4.25;2.75;;;;;;;;;;5053596;28;20404;-81
2022/05/17 00:57:55;;;;;;;4.75;2.85;;;;;;;;;;5054148;28;20427;-81
2022/05/17 01:00:21;;;;;;;3.00;2.72;;;;;;;;;;5054152;28;20385;-81
2022/05/17 01:02:55;;;;;;;4.40;3.15;;;;;;;;;;5053933;28;20472;-81
2022/05/17 01:05:24;;;;;;;6.85;2.72;;;;;;;;;;5054095;28;20393;-81
2022/05/17 01:07:52;;;;;;;4.30;2.85;;;;;;;;;;5053611;28;20469;-81
2022/05/17 01:10:18;;;;;;;6.45;2.90;;;;;;;;;;5040135;28;20407;-81
2022/05/17 01:14:57;;;;;;;4.65;2.92;;;;;;;;;;5033508;28;20741;-81
2022/05/17 01:15:30;;;;;;;5.63;2.70;;;;;;;;;;5033707;28;20387;-81
2022/05/17 01:17:56;;;;;;;4.15;2.70;;;;;;;;;;5033880;28;20871;-81
2022/05/17 01:20:22;;;;;;;5.45;2.80;;;;;;;;;;5034462;28;20383;-81
2022/05/17 01:22:48;;;;;;;2.58;2.38;;;;;;;;;;5033768;28;20390;-81
2022/05/17 01:25:14;;;;;;;4.67;2.70;;;;;;;;;;5033741;28;20375;-81
2022/05/17 01:27:48;;;;;;;5.05;2.70;;;;;;;;;;5033272;28;20394;-81
2022/05/17 01:30:16;;;;;;;13.40;9.80;;;;;;;;;;5033905;28;20403;-81
2022/05/17 01:32:42;;;;;;;3.67;2.80;;;;;;;;;;5033342;28;20394;-81
2022/05/17 01:35:08;;;;;;;5.22;2.65;;;;;;;;;;5033501;28;20400;-81
2022/05/17 01:37:35;;;;;;;3.85;2.90;;;;;;;;;;5033705;28;20405;-81
2022/05/17 01:40:01;;;;;;;4.13;2.83;;;;;;;;;;5015772;28;20761;-81
2022/05/17 01:42:27;;;;;;;4.93;2.92;;;;;;;;;;5033410;28;20493;-81
2022/05/17 01:44:53;;;;;;;3.90;3.00;;;;;;;;;;5033213;28;20869;-81
2022/05/17 01:47:19;;;;;;;3.78;2.90;;;;;;;;;;5032995;28;20481;-79
2022/05/17 01:49:45;;;;;;;3.50;2.75;;;;;;;;;;5032880;28;20442;-79
2022/05/17 01:52:11;;;;;;;3.85;2.67;;;;;;;;;;5033243;28;20939;-79
2022/05/17 01:54:37;;;;;;;4.13;2.90;;;;;;;;;;5042551;28;20520;-79
2022/05/17 01:57:03;;;;;;;4.85;3.10;;;;;;;;;;5053211;28;20469;-80
2022/05/17 01:59:29;;;;;;;4.32;3.30;;;;;;;;;;5050151;28;20386;-79
2022/05/17 02:01:55;;;;;;;4.05;3.35;;;;;;;;;;5033019;28;20795;-81
2022/05/17 02:04:21;;;;;;;5.53;4.05;;;;;;;;;;5032510;28;20385;-80
2022/05/17 02:06:47;;;;;;;4.68;3.20;;;;;;;;;;5032838;28;20462;-81
2022/05/17 02:09:13;;;;;;;4.05;3.10;;;;;;;;;;5032697;28;20915;-81
2022/05/17 02:11:40;;;;;;;3.13;2.80;;;;;;;;;;5032845;28;20379;-80
2022/05/17 02:14:07;;;;;;;6.07;3.50;;;;;;;;;;5032209;28;20382;-81
2022/05/17 02:16:39;;;;;;;5.05;3.10;;;;;;;;;;5033440;28;20371;-81
2022/05/17 02:19:06;;;;;;;4.93;3.17;;;;;;;;;;5032851;28;20510;-81
2022/05/17 02:21:33;;;;;;;5.03;3.20;;;;;;;;;;5032683;28;20416;-81
2022/05/17 02:23:59;;;;;;;3.83;3.00;;;;;;;;;;5032223;28;20399;-81
2022/05/17 02:26:25;;;;;;;4.05;2.92;;;;;;;;;;5032657;28;20445;-81
2022/05/17 02:28:51;;;;;;;3.45;2.80;;;;;;;;;;5032297;28;20387;-81
2022/05/17 02:31:18;;;;;;;4.85;3.10;;;;;;;;;;5032565;28;20497;-81
2022/05/17 02:33:44;;;;;;;5.07;3.30;;;;;;;;;;5032465;28;20878;-81
2022/05/17 02:36:10;;;;;;;6.05;3.90;;;;;;;;;;5032772;28;20414;-80
2022/05/17 02:38:36;;;;;;;5.85;3.38;;;;;;;;;;5032427;28;20383;-81
2022/05/17 02:41:02;;;;;;;3.90;3.50;;;;;;;;;;5032436;28;20386;-80
2022/05/17 02:43:28;;;;;;;6.40;3.33;;;;;;;;;;5031879;28;20474;-80
2022/05/17 02:45:54;;;;;;;3.65;3.00;;;;;;;;;;5031896;28;20383;-80
2022/05/17 02:48:20;;;;;;;6.10;3.60;;;;;;;;;;5032620;28;20440;-81
2022/05/17 02:50:46;;;;;;;5.80;3.90;;;;;;;;;;5052018;28;20463;-80
2022/05/17 02:53:12;;;;;;;4.90;3.42;;;;;;;;;;5052094;28;20377;-80
2022/05/17 02:55:38;;;;;;;3.63;3.20;;;;;;;;;;5052089;28;20405;-81
2022/05/17 02:58:04;;;;;;;4.10;3.40;;;;;;;;;;5052069;28;20451;-80
2022/05/17 03:00:30;;;;;;;5.00;3.20;;;;;;;;;;5051490;28;20950;-80
2022/05/17 03:02:57;;;;;;;5.88;3.15;;;;;;;;;;5051862;28;20743;-80
2022/05/17 03:05:24;;;;;;;3.53;2.70;;;;;;;;;;5052062;28;20381;-80
2022/05/17 03:07:50;;;;;;;5.22;3.20;;;;;;;;;;5052020;28;20431;-80
2022/05/17 03:10:17;;;;;;;4.80;3.13;;;;;;;;;;5051984;28;20878;-81
2022/05/17 03:12:43;;;;;;;4.03;3.50;;;;;;;;;;5051917;28;20374;-81
2022/05/17 03:15:11;;;;;;;3.85;2.97;;;;;;;;;;5051952;28;20866;-80
2022/05/17 03:17:36;;;;;;;4.10;3.10;;;;;;;;;;5046462;28;20732;-81
2022/05/17 03:20:03;;;;;;;5.32;3.03;;;;;;;;;;5031699;28;20387;-80
2022/05/17 03:22:29;;;;;;;4.18;2.92;;;;;;;;;;5031967;28;20437;-80
2022/05/17 03:24:55;;;;;;;4.13;3.50;;;;;;;;;;5032064;28;20379;-80
2022/05/17 03:27:21;;;;;;;3.33;2.92;;;;;;;;;;5034637;28;20390;-81
2022/05/17 03:29:47;;;;;;;5.78;3.80;;;;;;;;;;5036015;28;20915;-80
2022/05/17 03:32:13;;;;;;;5.05;3.80;;;;;;;;;;5035685;28;20406;-80
2022/05/17 03:34:39;;;;;;;4.15;3.42;;;;;;;;;;5035423;28;20865;-81
2022/05/17 03:37:05;;;;;;;5.00;4.05;;;;;;;;;;5035197;28;20942;-80
2022/05/17 03:39:31;;;;;;;3.70;3.23;;;;;;;;;;5035765;28;20884;-81
2022/05/17 03:41:57;;;;;;;4.25;3.10;;;;;;;;;;5035640;28;20387;-80
2022/05/17 03:44:23;;;;;;;4.97;3.35;;;;;;;;;;5035650;28;20383;-80
2022/05/17 03:46:49;;;;;;;3.83;3.22;;;;;;;;;;5035501;28;20390;-81
2022/05/17 03:49:15;;;;;;;3.87;3.10;;;;;;;;;;5020342;28;20399;-81
2022/05/17 03:51:41;;;;;;;4.18;3.30;;;;;;;;;;5056953;28;20392;-80
2022/05/17 03:54:07;;;;;;;4.30;3.08;;;;;;;;;;5055471;28;20491;-80
2022/05/17 03:56:33;;;;;;;4.38;3.10;;;;;;;;;;5054945;28;20377;-80
2022/05/17 03:58:59;;;;;;;4.05;3.30;;;;;;;;;;5055450;28;20378;-80
2022/05/17 04:01:25;;;;;;;4.95;3.05;;;;;;;;;;5055250;28;20385;-80
2022/05/17 04:03:51;;;;;;;3.60;3.30;;;;;;;;;;5055259;28;20382;-80
2022/05/17 04:06:19;;;;;;;3.80;3.20;;;;;;;;;;5055153;28;20386;-80
2022/05/17 04:08:45;;;;;;;3.90;2.95;;;;;;;;;;5052099;28;20377;-80
2022/05/17 04:11:11;;;;;;;6.10;3.17;;;;;;;;;;5034732;28;20915;-80
2022/05/17 04:13:37;;;;;;;3.70;3.13;;;;;;;;;;5034990;28;20379;-80
2022/05/17 04:16:03;;;;;;;6.10;3.20;;;;;;;;;;5035075;28;20457;-80
2022/05/17 04:18:29;;;;;;;5.22;3.10;;;;;;;;;;5035360;28;20406;-80
2022/05/17 04:21:02;;;;;;;4.43;3.00;;;;;;;;;;5034932;28;20816;-80
2022/05/17 04:23:29;;;;;;;3.45;2.92;;;;;;;;;;5035018;28;20419;-80
2022/05/17 04:25:55;;;;;;;3.95;3.15;;;;;;;;;;5034840;28;20386;-80
2022/05/17 04:28:21;;;;;;;4.63;3.00;;;;;;;;;;5034597;28;20422;-81
2022/05/17 04:30:47;;;;;;;5.68;3.20;;;;;;;;;;5034477;28;20446;-80
2022/05/17 04:33:13;;;;;;;4.53;3.35;;;;;;;;;;5016942;28;20411;-80
2022/05/17 04:35:40;;;;;;;3.53;3.13;;;;;;;;;;5034773;28;20454;-80
2022/05/17 04:38:07;;;;;;;3.90;3.58;;;;;;;;;;5034386;28;20410;-80
2022/05/17 04:40:33;;;;;;;3.90;3.00;;;;;;;;;;5034610;28;20740;-80
2022/05/17 04:42:59;;;;;;;4.47;3.25;;;;;;;;;;5034220;28;20426;-80
2022/05/17 04:45:25;;;;;;;4.65;3.22;;;;;;;;;;5034299;28;20419;-80
2022/05/17 04:47:51;;;;;;;5.40;3.28;;;;;;;;;;5034658;28;20800;-80
2022/05/17 04:50:18;;;;;;;3.38;3.00;;;;;;;;;;5034104;28;20403;-80
2022/05/17 04:52:46;;;;;;;4.47;3.60;;;;;;;;;;5034437;28;20845;-81
2022/05/17 04:55:14;;;;;;;6.05;4.95;;;;;;;;;;5034218;28;20860;-80
2022/05/17 04:57:40;;;;;;;5.28;4.88;;;;;;;;;;5043957;28;20460;-80
2022/05/17 05:00:07;;;;;;;5.60;5.07;;;;;;;;;;5054260;28;20484;-80
2022/05/17 05:02:33;;;;;;;7.18;6.13;;;;;;;;;;5053684;28;20393;-80
2022/05/17 05:04:59;;;;;;;6.28;5.68;;;;;;;;;;5036154;28;20717;-80
2022/05/17 05:07:25;;;;;;;5.60;5.10;;;;;;;;;;5053937;28;20393;-81
2022/05/17 05:09:52;;;;;;;5.30;4.80;;;;;;;;;;5036167;28;20407;-80
2022/05/17 05:12:18;;;;;;;8.25;4.90;;;;;;;;;;5033872;28;20375;-80
2022/05/17 05:14:44;;;;;;;4.53;4.13;;;;;;;;;;5033954;28;20462;-80
2022/05/17 05:17:10;;;;;;;4.90;4.43;;;;;;;;;;5033870;28;20405;-80
2022/05/17 05:19:36;;;;;;;7.10;4.10;;;;;;;;;;5033649;28;20808;-80
2022/05/17 05:22:03;;;;;;;6.10;3.83;;;;;;;;;;5033619;28;20387;-80
2022/05/17 05:24:29;;;;;;;4.73;3.60;;;;;;;;;;5015965;28;20398;-80
2022/05/17 05:26:55;;;;;;;4.55;3.50;;;;;;;;;;5033668;28;20410;-80
2022/05/17 05:29:22;;;;;;;4.13;3.50;;;;;;;;;;5033278;28;20383;-80
2022/05/17 05:31:48;;;;;;;4.40;3.53;;;;;;;;;;5015956;28;20473;-80
2022/05/17 05:34:14;;;;;;;4.32;3.60;;;;;;;;;;5033785;28;20919;-80
2022/05/17 05:36:40;;;;;;;4.07;3.67;;;;;;;;;;5033570;28;20383;-80
2022/05/17 05:39:06;;;;;;;4.30;3.90;;;;;;;;;;5033189;28;20869;-80
2022/05/17 05:41:32;;;;;;;7.22;4.53;;;;;;;;;;5015772;28;20438;-80
2022/05/17 05:43:58;;;;;;;5.15;4.30;;;;;;;;;;5033376;28;20395;-80
2022/05/17 05:46:24;;;;;;;5.53;4.23;;;;;;;;;;5032917;28;20402;-80
2022/05/17 05:48:50;;;;;;;6.70;6.10;;;;;;;;;;5032546;28;20884;-80
2022/05/17 05:51:17;;;;;;;7.85;6.10;;;;;;;;;;5047027;28;20440;-80
2022/05/17 05:53:43;;;;;;;7.13;6.43;;;;;;;;;;5052985;28;20408;-80
2022/05/17 05:56:11;;;;;;;9.20;6.82;;;;;;;;;;5052985;28;20409;-80
2022/05/17 05:58:38;;;;;;;8.02;6.63;;;;;;;;;;5052550;28;20400;-80
2022/05/17 06:01:04;;;;;;;7.78;6.88;;;;;;;;;;5053142;28;20466;-80
2022/05/17 06:03:31;;;;;;;9.95;6.85;;;;;;;;;;5052671;28;20446;-81
2022/05/17 06:05:57;;;;;;;7.03;6.20;;;;;;;;;;5051620;28;20378;-80
2022/05/17 06:08:24;;;;;;;6.93;6.22;;;;;;;;;;5034952;28;20852;-80
2022/05/17 06:10:50;;;;;;;7.75;6.25;;;;;;;;;;5033431;28;20410;-80
2022/05/17 06:13:16;;;;;;;9.10;7.15;;;;;;;;;;5033027;28;20422;-80
2022/05/17 06:15:43;;;;;;;8.75;6.93;;;;;;;;;;5032407;28;20860;-80
2022/05/17 06:18:09;;;;;;;9.65;7.93;;;;;;;;;;5032961;28;20903;-80
2022/05/17 06:20:36;;;;;;;10.98;8.32;;;;;;;;;;5032850;28;20383;-81
2022/05/17 06:23:03;;;;;;;9.02;8.13;;;;;;;;;;5032592;28;20426;-81
2022/05/17 06:25:29;;;;;;;9.45;8.48;;;;;;;;;;5032770;28;20387;-81
2022/05/17 06:27:55;;;;;;;9.05;8.15;;;;;;;;;;5014808;28;20749;-81
2022/05/17 06:30:21;;;;;;;12.35;8.45;;;;;;;;;;5032587;28;20560;-81
2022/05/17 06:32:47;;;;;;;9.40;7.70;;;;;;;;;;5032539;28;20461;-81
2022/05/17 06:35:13;;;;;;;8.32;7.10;;;;;;;;;;5032121;28;20376;-81
2022/05/17 06:37:39;;;;;;;8.20;6.63;;;;;;;;;;5032699;28;20380;-81
2022/05/17 06:40:06;;;;;;;9.57;7.00;;;;;;;;;;5032131;28;20383;-81
2022/05/17 06:42:32;;;;;;;9.13;6.90;;;;;;;;;;5032437;28;20389;-81
2022/05/17 06:44:58;;;;;;;8.02;6.18;;;;;;;;;;5032512;28;20383;-81
2022/05/17 06:47:25;;;;;;;6.65;5.50;;;;;;;;;;5032310;28;20426;-81
2022/05/17 06:49:51;;;;;;;7.22;5.60;;;;;;;;;;5032664;28;20409;-81
2022/05/17 06:52:17;;;;;;;7.97;5.55;;;;;;;;;;5014406;28;20888;-81
2022/05/17 06:54:43;;;;;;;5.60;5.00;;;;;;;;;;5032322;28;20881;-81
2022/05/17 06:57:13;;;;;;;9.10;5.38;;;;;;;;;;5035195;28;20869;-81
2022/05/17 06:59:40;;;;;;;5.28;4.40;;;;;;;;;;5053041;28;20381;-81
2022/05/17 07:02:07;;;;;;;6.00;5.03;;;;;;;;;;5052457;28;20381;-81
2022/05/17 07:04:34;;;;;;;6.28;5.57;;;;;;;;;;5052102;28;20390;-81
2022/05/17 07:07:00;;;;;;;5.20;4.70;;;;;;;;;;5048223;28;20422;-81
2022/05/17 07:09:27;;;;;;;6.57;4.85;;;;;;;;;;5032610;28;20387;-80
2022/05/17 07:14:38;;;;;;;7.60;5.50;;;;;;;;;;5032350;28;20439;-81
2022/05/17 07:17:10;;;;;;;5.18;4.70;;;;;;;;;;5031887;28;20865;-81
2022/05/17 07:19:37;;;;;;;5.07;4.45;;;;;;;;;;5014405;28;20395;-81
2022/05/17 07:22:04;;;;;;;5.93;4.77;;;;;;;;;;5032228;28;20804;-81
2022/05/17 07:24:30;;;;;;;7.77;4.80;;;;;;;;;;5032251;28;20391;-81
2022/05/17 07:26:57;;;;;;;6.28;4.82;;;;;;;;;;5032133;28;20458;-81
2022/05/17 07:29:23;;;;;;;5.20;4.47;;;;;;;;;;5031726;28;20403;-80
2022/05/17 07:31:49;;;;;;;4.90;3.63;;;;;;;;;;5031977;28;20438;-80
2022/05/17 07:34:15;;;;;;;4.95;3.70;;;;;;;;;;5031812;28;20463;-80
2022/05/17 07:36:41;;;;;;;4.57;4.05;;;;;;;;;;5031755;28;20390;-79
2022/05/17 07:39:08;;;;;;;6.43;3.90;;;;;;;;;;5032115;28;20372;-80
2022/05/17 07:41:34;;;;;;;6.10;4.35;;;;;;;;;;5032166;28;20382;-80
2022/05/17 07:44:01;;;;;;;7.18;4.10;;;;;;;;;;5043785;28;20397;-80
2022/05/17 07:46:27;;;;;;;5.78;3.40;;;;;;;;;;5051549;28;20380;-81
2022/05/17 07:48:53;;;;;;;6.38;3.67;;;;;;;;;;5051797;28;20456;-79
2022/05/17 07:51:19;;;;;;;6.72;3.60;;;;;;;;;;5033347;28;20903;-79
2022/05/17 07:53:46;;;;;;;3.38;2.92;;;;;;;;;;5033863;28;20385;-79
2022/05/17 07:56:13;;;;;;;4.07;3.15;;;;;;;;;;5054367;28;20870;-80
2022/05/17 07:58:38;;;;;;;6.63;3.45;;;;;;;;;;5051898;28;20388;-80
2022/05/17 08:01:05;;;;;;;4.65;3.22;;;;;;;;;;5051430;28;20381;-80
2022/05/17 08:03:31;;;;;;;5.63;3.35;;;;;;;;;;5045050;28;20391;-80
2022/05/17 08:05:58;;;;;;;5.83;3.17;;;;;;;;;;5031979;28;20383;-79
2022/05/17 08:08:24;;;;;;;4.90;3.03;;;;;;;;;;5031647;28;20478;-80
2022/05/17 08:10:50;;;;;;;3.67;2.90;;;;;;;;;;5031452;28;20410;-80
2022/05/17 08:13:17;;;;;;;5.45;3.17;;;;;;;;;;5033765;28;20462;-81
2022/05/17 08:15:44;;;;;;;6.15;3.08;;;;;;;;;;5035348;28;20379;-80
2022/05/17 08:18:10;;;;;;;6.18;3.30;;;;;;;;;;5034824;28;20379;-80
2022/05/17 08:20:36;;;;;;;5.88;2.95;;;;;;;;;;5035353;28;20433;-81
2022/05/17 08:23:03;;;;;;;4.47;2.90;;;;;;;;;;5035166;28;20379;-80
2022/05/17 08:28:14;;;;;;;5.88;3.30;;;;;;;;;;5035184;28;20879;-80
2022/05/17 08:30:40;;;;;;;7.13;3.10;;;;;;;;;;5034544;28;20407;-81
2022/05/17 08:33:20;;;;;;;5.38;2.83;;;;;;;;;;5034895;28;20378;-81
2022/05/17 08:35:46;;;;;;;5.00;2.80;;;;;;;;;;5034532;28;20402;-81
2022/05/17 08:38:13;;;;;;;4.20;2.90;;;;;;;;;;5034881;28;20434;-81
2022/05/17 08:41:00;;;;;;;5.73;3.10;;;;;;;;;;5017217;28;20434;-81
2022/05/17 08:43:29;;;;;;;5.53;3.25;;;;;;;;;;5024326;28;20756;-81
2022/05/17 08:46:15;;;;;;;4.77;2.90;;;;;;;;;;5034765;28;20394;-81
2022/05/17 08:48:52;;;;;;;5.10;2.83;;;;;;;;;;5034135;28;20375;-81
2022/05/17 08:51:25;;;;;;;4.85;2.55;;;;;;;;;;5045681;28;20401;-81
2022/05/17 08:53:51;;;;;;;5.97;2.70;;;;;;;;;;5053741;28;20397;-81
2022/05/17 08:56:17;;;;;;;3.05;2.30;;;;;;;;;;5054564;28;20465;-80
2022/05/17 08:58:46;;;;;;;4.80;2.70;;;;;;;;;;5054392;28;20537;-81
2022/05/17 09:01:17;;;;;;;2.72;2.40;;;;;;;;;;5054694;28;20871;-81
2022/05/17 09:04:10;;;;;;;4.00;2.45;;;;;;;;;;5054492;28;20439;-81
2022/05/17 09:06:51;;;;;;;3.15;2.10;;;;;;;;;;5054000;28;20396;-81
2022/05/17 09:09:24;;;;;;;3.45;2.45;;;;;;;;;;5054076;28;20377;-81
2022/05/17 09:11:57;;;;;;;4.47;2.57;;;;;;;;;;5047819;28;20942;-81
2022/05/17 09:14:24;;;;;;;3.35;2.08;;;;;;;;;;5034162;28;20467;-81
2022/05/17 09:16:59;;;;;;;4.00;2.13;;;;;;;;;;5033952;28;20382;-81
2022/05/17 09:19:25;;;;;;;4.13;2.60;;;;;;;;;;5016401;28;20748;-81
2022/05/17 09:21:53;;;;;;;4.57;2.30;;;;;;;;;;5034064;28;20394;-81
2022/05/17 09:24:21;;;;;;;4.97;2.55;;;;;;;;;;5033978;28;20376;-82
2022/05/17 09:26:52;;;;;;;4.00;2.17;;;;;;;;;;5033358;28;20372;-81
2022/05/17 09:29:18;;;;;;;3.13;1.92;;;;;;;;;;5033536;28;20444;-81
2022/05/17 09:32:01;;;;;;;3.80;2.10;;;;;;;;;;5033774;28;20581;-81
2022/05/17 09:34:33;;;;;;;4.20;1.83;;;;;;;;;;5034695;23;20780;-89
2022/05/17 09:37:03;;;;;;;3.90;1.98;;;;;;;;;;5053365;28;20846;-88
2022/05/17 09:39:30;;;;;;;2.88;1.80;;;;;;;;;;5053437;28;20472;-91
2022/05/17 09:42:01;;;;;;;2.60;1.60;;;;;;;;;;5053700;28;20382;-88
2022/05/17 09:44:28;;;;;;;3.05;1.50;;;;;;;;;;5052985;28;20397;-89
2022/05/17 09:46:59;;;;;;;3.17;2.00;;;;;;;;;;5056129;28;20370;-89
2022/05/17 09:52:38;;;;;;;2.67;1.90;;;;;;;;;;5053741;28;20392;-89
2022/05/17 09:55:11;;;;;;;3.13;1.77;;;;;;;;;;5053261;28;20399;-90
2022/05/17 09:57:37;;;;;;;3.78;1.90;;;;;;;;;;5053258;28;20408;-90
2022/05/17 10:00:08;;;;;;;4.95;1.88;;;;;;;;;;5053078;28;20931;-90
2022/05/17 10:02:39;;;;;;;3.10;1.70;;;;;;;;;;5052187;28;20389;-90
2022/05/17 10:05:16;;;;;;;3.20;1.75;;;;;;;;;;5051432;28;20468;-91
2022/05/17 10:07:48;;;;;;;2.60;1.70;;;;;;;;;;5052718;28;20377;-90
2022/05/17 10:10:26;;;;;;;3.38;2.03;;;;;;;;;;5052993;28;20405;-90
2022/05/17 10:12:56;;;;;;;2.15;1.75;;;;;;;;;;5053117;28;20381;-87
2022/05/17 10:15:23;;;;;;;3.72;1.88;;;;;;;;;;5034963;28;20751;-89
2022/05/17 10:17:51;;;;;;;3.90;1.65;;;;;;;;;;5053007;28;20392;-90
2022/05/17 10:20:20;;;;;;;2.88;1.60;;;;;;;;;;5052933;28;20480;-89
2022/05/17 10:22:56;;;;;;;3.20;1.60;;;;;;;;;;5052396;28;20381;-90
2022/05/17 10:25:41;;;;;;;3.75;1.77;;;;;;;;;;5052341;28;20374;-90
2022/05/17 10:28:10;;;;;;;2.38;1.48;;;;;;;;;;5052947;28;20385;-89
2022/05/17 10:30:42;;;;;;;3.20;1.52;;;;;;;;;;5052887;28;20409;-89
2022/05/17 10:33:15;;;;;;;2.85;1.73;;;;;;;;;;5052669;28;20925;-90
2022/05/17 10:35:45;;;;;;;3.65;1.63;;;;;;;;;;5052093;28;20394;-89
2022/05/17 10:38:11;;;;;;;2.83;1.70;;;;;;;;;;5052426;28;20388;-90
2022/05/17 10:40:43;;;;;;;3.53;1.83;;;;;;;;;;5052241;28;20474;-90
2022/05/17 10:43:09;;;;;;;2.35;1.60;;;;;;;;;;5052667;28;20436;-90
2022/05/17 10:45:36;;;;;;;4.20;1.60;;;;;;;;;;5051860;28;20418;-90
2022/05/17 10:48:20;;;;;;;4.65;1.70;;;;;;;;;;5052365;28;20377;-89
2022/05/17 10:51:02;;;;;;;2.75;1.63;;;;;;;;;;5054837;28;20499;-88
2022/05/17 10:53:54;;;;;;;3.13;1.77;;;;;;;;;;5051417;28;20381;-89
2022/05/17 10:56:34;;;;;;;3.55;1.77;;;;;;;;;;5049889;28;20396;-90
2022/05/17 10:59:01;;;;;;;3.53;1.75;;;;;;;;;;5052589;28;20913;-89
2022/05/17 11:01:31;;;;;;;3.53;1.52;;;;;;;;;;5051855;28;20377;-90
2022/05/17 11:04:14;;;;;;;2.88;1.40;;;;;;;;;;5051831;28;20456;-90
2022/05/17 11:06:49;;;;;;;5.23;1.90;;;;;;;;;;5052087;28;20389;-90
2022/05/17 11:09:30;;;;;;;2.40;1.70;;;;;;;;;;5052243;28;20381;-90
2022/05/17 11:11:56;;;;;;;4.07;1.77;;;;;;;;;;5052097;28;20388;-90
2022/05/17 11:14:33;;;;;;;4.25;1.60;;;;;;;;;;5052104;28;20369;-89
2022/05/17 11:17:06;;;;;;;3.90;1.70;;;;;;;;;;5051838;28;20369;-89
2022/05/17 11:19:37;;;;;;;3.38;1.67;;;;;;;;;;5047607;28;20459;-89
2022/05/17 11:22:13;;;;;;;2.97;1.50;;;;;;;;;;5052069;28;20370;-90
2022/05/17 11:24:48;;;;;;;4.13;1.83;;;;;;;;;;5051801;28;20894;-90
2022/05/17 11:27:25;;;;;;;2.90;1.70;;;;;;;;;;5052009;28;20393;-90
2022/05/17 11:29:54;;;;;;;3.03;1.70;;;;;;;;;;5051822;28;20405;-91
2022/05/17 11:32:26;;;;;;;3.78;1.88;;;;;;;;;;5051927;28;20838;-90
2022/05/17 11:34:53;;;;;;;5.07;2.20;;;;;;;;;;5051123;28;20455;-88
2022/05/17 11:37:36;;;;;;;3.88;2.00;;;;;;;;;;5051936;28;20431;-90
2022/05/17 11:40:04;;;;;;;3.70;1.90;;;;;;;;;;5051379;28;20870;-89
2022/05/17 11:42:32;;;;;;;2.38;1.67;;;;;;;;;;5051697;28;20397;-89
2022/05/17 11:45:36;;;;;;;3.08;1.80;;;;;;;;;;5051910;28;20747;-89
2022/05/17 11:48:02;;;;;;;4.10;1.67;;;;;;;;;;4972915;28;20400;-89
2022/05/17 11:50:28;;;;;;;4.35;1.95;;;;;;;;;;4977223;28;20406;-89
2022/05/17 11:53:13;;;;;;;4.47;1.90;;;;;;;;;;4958601;28;20388;-90
2022/05/17 11:55:40;;;;;;;3.90;1.53;;;;;;;;;;4973921;28;20480;-89
2022/05/17 11:58:09;;;;;;;3.40;1.80;;;;;;;;;;4974448;28;20398;-90
2022/05/17 12:00:42;;;;;;;3.42;1.85;;;;;;;;;;4974855;28;20470;-88
2022/05/17 12:03:19;;;;;;;2.83;1.75;;;;;;;;;;4974409;28;20391;-89
2022/05/17 12:05:48;;;;;;;3.88;1.83;;;;;;;;;;4974588;28;20392;-89
2022/05/17 12:08:32;;;;;;;2.60;1.90;;;;;;;;;;4974443;28;20424;-89
2022/05/17 12:11:01;;;;;;;3.20;1.90;;;;;;;;;;4967619;28;20436;-90
2022/05/17 12:13:28;;;;;;;3.30;1.67;;;;;;;;;;4955380;29;20382;-90
2022/05/17 12:15:54;;;;;;;2.03;1.57;;;;;;;;;;4954465;29;20394;-89
2022/05/17 12:18:23;;;;;;;3.20;1.60;;;;;;;;;;4980659;28;20387;-89
2022/05/17 12:21:08;;;;;;;3.20;1.80;;;;;;;;;;5035169;28;20379;-89
2022/05/17 12:23:46;;;;;;;3.42;1.95;;;;;;;;;;5035601;28;20865;-89
2022/05/17 12:26:21;;;;;;;3.28;2.10;;;;;;;;;;5034982;28;20383;-89
2022/05/17 12:28:52;;;;;;;3.00;1.80;;;;;;;;;;5034612;28;20383;-90
2022/05/17 12:31:25;;;;;;;4.90;1.80;;;;;;;;;;5034783;28;20407;-89
2022/05/17 12:33:52;;;;;;;3.58;1.80;;;;;;;;;;5034605;28;20379;-89
2022/05/17 12:36:31;;;;;;;6.30;1.50;;;;;;;;;;5034476;28;20526;-89
2022/05/17 12:44:39;;;;;;;3.92;1.70;;;;;;;;;;5034740;28;20406;-89
2022/05/17 12:47:08;;;;;;;2.60;1.70;;;;;;;;;;5034156;28;20383;-89
2022/05/17 12:49:34;;;;;;;2.42;1.60;;;;;;;;;;5034717;28;20387;-89
2022/05/17 12:52:21;;;;;;;2.97;1.50;;;;;;;;;;5038367;28;20973;-89
2022/05/17 12:54:50;;;;;;;3.97;1.80;;;;;;;;;;5033056;28;20380;-90
2022/05/17 12:57:17;;;;;;;2.88;1.60;;;;;;;;;;5034845;28;20383;-89
2022/05/17 12:59:43;;;;;;;3.05;1.80;;;;;;;;;;5034193;28;20853;-90
2022/05/17 13:02:09;;;;;;;4.85;1.60;;;;;;;;;;5034957;28;20467;-89
2022/05/17 13:04:37;;;;;;;3.40;1.75;;;;;;;;;;5034133;28;20462;-89
2022/05/17 13:07:13;;;;;;;3.25;1.70;;;;;;;;;;5033744;28;20429;-89
2022/05/17 13:09:57;;;;;;;3.13;1.65;;;;;;;;;;5036131;28;20375;-89
2022/05/17 13:12:24;;;;;;;4.45;1.70;;;;;;;;;;5053724;28;20908;-89
2022/05/17 13:14:51;;;;;;;2.85;1.63;;;;;;;;;;5053874;28;20374;-89
2022/05/17 13:17:28;;;;;;;3.97;2.10;;;;;;;;;;5053944;28;20484;-89
2022/05/17 13:19:55;;;;;;;2.95;1.60;;;;;;;;;;5054618;28;20370;-89
2022/05/17 13:22:22;;;;;;;3.00;1.58;;;;;;;;;;5053964;28;20386;-90
2022/05/17 13:24:51;;;;;;;4.60;1.85;;;;;;;;;;5053584;28;20377;-90
2022/05/17 13:27:29;;;;;;;8.07;2.05;;;;;;;;;;5053662;28;20440;-89
2022/05/17 13:29:57;;;;;;;4.90;1.80;;;;;;;;;;5053364;28;20416;-90
2022/05/17 13:32:24;;;;;;;3.75;1.80;;;;;;;;;;5053628;28;20378;-90
2022/05/17 13:35:09;;;;;;;3.42;1.88;;;;;;;;;;5053606;28;20456;-89
2022/05/17 13:37:36;;;;;;;4.07;1.80;;;;;;;;;;5053577;28;20397;-90
2022/05/17 13:40:02;;;;;;;3.35;1.75;;;;;;;;;;5053847;28;20460;-90
2022/05/17 13:42:30;;;;;;;4.05;1.92;;;;;;;;;;5053211;28;20377;-89
2022/05/17 13:45:01;;;;;;;3.35;1.98;;;;;;;;;;5053520;28;20496;-89
2022/05/17 13:47:40;;;;;;;3.88;1.75;;;;;;;;;;5053001;28;20742;-90
2022/05/17 13:50:11;;;;;;;3.85;1.70;;;;;;;;;;5053413;28;20400;-90
2022/05/17 13:52:48;;;;;;;3.60;1.98;;;;;;;;;;5035446;28;20875;-90
2022/05/17 13:55:20;;;;;;;3.43;2.10;;;;;;;;;;5053420;28;20452;-89
2022/05/17 13:57:48;;;;;;;1.90;1.50;;;;;;;;;;5052773;28;20431;-90
2022/05/17 14:00:17;;;;;;;2.30;1.70;;;;;;;;;;5055580;28;20385;-90
2022/05/17 14:02:46;;;;;;;3.67;1.80;;;;;;;;;;5053057;28;20396;-90
2022/05/17 14:05:18;;;;;;;3.65;1.70;;;;;;;;;;5085119;23;20508;-89
2022/05/17 14:14:02;;;;;;;2.85;1.92;;;;;;;;;;5052941;28;20436;-90
2022/05/17 14:16:30;;;;;;;2.97;1.80;;;;;;;;;;5052517;28;20743;-89
2022/05/17 14:18:57;;;;;;;2.85;1.90;;;;;;;;;;5052840;28;20447;-89
2022/05/17 14:21:23;;;;;;;4.47;1.70;;;;;;;;;;5039176;28;20390;-89
2022/05/17 14:23:50;;;;;;;2.47;1.60;;;;;;;;;;5032367;28;20441;-90
2022/05/17 14:26:18;;;;;;;4.80;2.00;;;;;;;;;;5032787;28;20379;-90
2022/05/17 14:28:44;;;;;;;2.88;1.70;;;;;;;;;;5033096;28;20412;-90
2022/05/17 14:31:16;;;;;;;2.33;1.60;;;;;;;;;;5032893;28;20954;-89
2022/05/17 14:33:42;;;;;;;3.53;1.77;;;;;;;;;;5032606;28;20375;-90
2022/05/17 14:36:15;;;;;;;3.08;1.80;;;;;;;;;;5032362;28;20407;-90
2022/05/17 14:38:41;;;;;;;2.60;1.80;;;;;;;;;;5032875;28;20367;-90
2022/05/17 14:41:07;;;;;;;2.53;1.80;;;;;;;;;;5032092;28;20455;-90
2022/05/17 14:43:33;;;;;;;2.50;1.50;;;;;;;;;;5032331;28;20379;-90
2022/05/17 14:45:59;;;;;;;2.75;1.52;;;;;;;;;;5032521;28;20379;-89
2022/05/17 14:48:26;;;;;;;2.33;1.70;;;;;;;;;;5032606;28;20462;-90
2022/05/17 14:50:53;;;;;;;3.03;1.70;;;;;;;;;;5032073;28;20399;-89
2022/05/17 14:53:19;;;;;;;5.30;1.90;;;;;;;;;;5032288;28;20417;-88
2022/05/17 14:55:45;;;;;;;3.00;1.83;;;;;;;;;;5032523;28;20462;-89
2022/05/17 14:58:11;;;;;;;2.72;1.60;;;;;;;;;;5040438;28;20396;-90
2022/05/17 15:00:38;;;;;;;2.85;1.60;;;;;;;;;;5051775;28;20385;-90
2022/05/17 15:03:06;;;;;;;2.70;1.60;;;;;;;;;;5052295;28;20389;-90
2022/05/17 15:05:33;;;;;;;2.30;1.63;;;;;;;;;;5052204;28;20924;-89
2022/05/17 15:08:00;;;;;;;4.50;1.80;;;;;;;;;;5043058;28;20437;-89
2022/05/17 15:10:28;;;;;;;2.60;1.65;;;;;;;;;;5032563;28;20730;-89
2022/05/17 15:12:54;;;;;;;2.70;1.65;;;;;;;;;;5032701;28;20429;-89